Iringa Airport

Airport
ICAO code: 
HTIR
IATA Code: 
IRI
Summary
ICAO Region: 
AFI
Territory: 
Location: 
Iringa, Iringa Region
Serving: 
Iringa
Elevation: 
4678 ft
Coordinates: 
Aerial View: 
7° 40' 9.984" S, 35° 45' 5.004" E
Metar
Observation
HTIR 162200Z 00000KT 9999 FEW021 FEW022CB BKN070 19/16 Q1018
Station
Iringa
Date/Time
2022-01-16 22:00:00
Wind direction
Wind speed
00 kts
Lowest cloud amount
few clouds
Temperature
19°C
Dew point
16°C
Humidity
82%
QNH
1018 hPa
Weather condition
n/a

Iringa Airport is an airport in Tanzania serving Iringa and the surrounding Iringa Region

Climatology

Tropical Savanna climate (Köppen climate classification Aw)

Runways

Designator Length Width Surface Rops
2/20 1679 30 ASP No/No
Airport map: 
Aerial View: 

SKYbrary Partners:

Safety knowledge contributed by: